createdAt,value
2023-01-17T00:01:46.724Z,45.22
2023-01-17T00:07:03.331Z,43.72
2023-01-17T00:12:05.616Z,46.80
2023-01-17T00:17:04.607Z,48.53
2023-01-17T00:22:27.544Z,54.45
2023-01-17T00:27:29.204Z,66.75
2023-01-17T00:32:27.092Z,51.80
2023-01-17T00:37:24.801Z,42.50
2023-01-17T00:42:22.587Z,40.10
2023-01-17T00:47:40.468Z,43.15
2023-01-17T00:52:56.647Z,42.58
2023-01-17T00:58:12.825Z,33.05
2023-01-17T01:03:30.644Z,23.67
2023-01-17T01:08:48.787Z,13.50
2023-01-17T01:14:05.145Z,11.05
2023-01-17T01:19:23.402Z,11.45
2023-01-17T01:24:39.528Z,8.55
2023-01-17T01:29:55.860Z,7.43
2023-01-17T01:34:56.186Z,12.20
2023-01-17T01:39:55.208Z,10.77
2023-01-17T01:44:56.157Z,9.63
2023-01-17T01:50:01.701Z,9.32
2023-01-17T01:55:04.104Z,12.20
2023-01-17T02:00:06.848Z,9.65
2023-01-17T02:05:14.710Z,10.80
2023-01-17T02:10:14.045Z,9.40
2023-01-17T02:15:15.990Z,13.75
2023-01-17T02:20:55.269Z,12.50
2023-01-17T02:26:27.119Z,30.55
2023-01-17T02:31:32.149Z,21.38
2023-01-17T02:36:34.322Z,18.52
2023-01-17T02:41:38.176Z,18.15
2023-01-17T02:46:46.731Z,14.00
2023-01-17T02:52:02.649Z,11.27
2023-01-17T02:57:40.606Z,12.25
2023-01-17T03:02:49.198Z,13.25
2023-01-17T03:07:48.737Z,36.72
2023-01-17T03:12:47.910Z,14.90
2023-01-17T03:17:52.067Z,15.65
2023-01-17T03:22:51.101Z,17.45
2023-01-17T03:27:49.992Z,16.58
2023-01-17T03:32:50.449Z,13.98
2023-01-17T03:37:49.420Z,12.63
2023-01-17T03:42:48.725Z,13.55
2023-01-17T03:47:47.696Z,11.50
2023-01-17T03:52:47.940Z,13.98
2023-01-17T03:57:46.742Z,9.63
2023-01-17T04:02:45.665Z,8.90
2023-01-17T04:07:44.456Z,80.75
2023-01-17T04:12:45.004Z,27.27
2023-01-17T04:17:44.144Z,15.02
2023-01-17T04:22:43.064Z,19.52
2023-01-17T04:27:42.052Z,18.13
2023-01-17T04:32:42.457Z,32.35
2023-01-17T04:37:41.600Z,11.80
2023-01-17T04:42:40.571Z,12.07
2023-01-17T04:47:39.726Z,13.13
2023-01-17T04:52:40.356Z,10.90
2023-01-17T04:57:39.295Z,10.43
2023-01-17T05:02:38.175Z,9.23
2023-01-17T05:07:37.073Z,8.85
2023-01-17T05:12:37.327Z,9.43
2023-01-17T05:17:36.129Z,6.57
2023-01-17T05:22:34.904Z,8.48
2023-01-17T05:27:33.715Z,14.45
2023-01-17T05:32:34.084Z,9.57
2023-01-17T05:37:32.889Z,12.75
2023-01-17T05:42:31.651Z,8.23
2023-01-17T05:47:30.508Z,7.15
2023-01-17T05:52:30.798Z,9.80
2023-01-17T05:57:29.609Z,8.05
2023-01-17T06:02:28.482Z,11.10
2023-01-17T06:07:27.403Z,11.50
2023-01-17T06:12:27.695Z,13.07
2023-01-17T06:17:26.541Z,21.55
2023-01-17T06:22:25.379Z,13.70
2023-01-17T06:27:24.327Z,12.18
2023-01-17T06:32:24.635Z,11.18
2023-01-17T06:37:23.735Z,8.20
2023-01-17T06:42:22.903Z,7.25
2023-01-17T06:47:21.806Z,13.77
2023-01-17T06:52:22.301Z,14.65
2023-01-17T06:57:24.476Z,8.48
2023-01-17T07:02:23.647Z,12.88
2023-01-17T07:07:25.023Z,13.70
2023-01-17T07:12:24.027Z,14.27
2023-01-17T07:17:22.924Z,21.23
2023-01-17T07:22:23.475Z,18.58
2023-01-17T07:27:22.502Z,21.17
2023-01-17T07:32:21.702Z,22.00
2023-01-17T07:37:21.206Z,25.13
2023-01-17T07:42:23.828Z,51.17
2023-01-17T07:47:24.933Z,33.00
2023-01-17T07:52:23.937Z,33.33
2023-01-17T07:57:24.531Z,32.90
2023-01-17T08:02:24.993Z,31.42
2023-01-17T08:07:24.031Z,24.67
2023-01-17T08:12:26.197Z,20.00
2023-01-17T08:17:25.083Z,25.02
2023-01-17T08:22:26.446Z,23.77
2023-01-17T08:27:27.071Z,34.67
2023-01-17T08:32:25.962Z,26.40
2023-01-17T08:37:25.431Z,29.73
2023-01-17T08:42:24.198Z,28.52
2023-01-17T08:47:28.058Z,15.07
2023-01-17T08:52:27.137Z,16.10
2023-01-17T08:57:28.841Z,12.82
2023-01-17T09:02:29.030Z,15.55
2023-01-17T09:07:28.703Z,13.10
2023-01-17T09:12:27.607Z,12.85
2023-01-17T09:17:26.518Z,12.73
2023-01-17T09:22:27.230Z,9.95
2023-01-17T09:27:27.955Z,11.77
2023-01-17T09:32:26.776Z,10.38
2023-01-17T09:37:27.010Z,7.80
2023-01-17T09:42:36.365Z,8.10
2023-01-17T09:47:42.263Z,9.85
2023-01-17T09:52:42.794Z,4.63
2023-01-17T09:57:59.465Z,4.97
2023-01-17T10:03:17.908Z,8.05
2023-01-17T10:08:30.100Z,6.05
2023-01-17T10:13:41.894Z,4.90
2023-01-17T10:18:59.814Z,5.80
2023-01-17T10:24:36.940Z,7.55
2023-01-17T10:29:38.201Z,5.80
2023-01-17T10:34:42.179Z,6.18
2023-01-17T10:39:41.155Z,5.28
2023-01-17T10:44:50.085Z,3.90
2023-01-17T10:49:56.503Z,4.80
2023-01-17T10:55:08.995Z,6.35
2023-01-17T11:05:26.693Z,4.78
2023-01-17T11:10:36.865Z,6.28
2023-01-17T11:15:40.810Z,5.43
2023-01-17T11:20:43.179Z,8.88
2023-01-17T11:30:53.150Z,2.72
2023-01-17T11:35:52.611Z,5.65
2023-01-17T11:40:53.968Z,4.95
2023-01-17T11:46:07.249Z,8.00
2023-01-17T11:51:19.330Z,6.03
2023-01-17T11:56:33.169Z,8.23
2023-01-17T12:01:46.433Z,9.18
2023-01-17T12:12:58.987Z,5.38
2023-01-17T12:18:36.389Z,8.63
2023-01-17T12:23:48.827Z,7.53
2023-01-17T12:34:14.090Z,3.38
2023-01-17T12:39:21.269Z,6.43
2023-01-17T12:44:24.962Z,9.98
2023-01-17T12:49:38.538Z,5.43
2023-01-17T12:54:41.281Z,4.07
2023-01-17T12:59:48.199Z,7.50
2023-01-17T13:05:00.991Z,8.95
2023-01-17T13:10:04.576Z,9.30
2023-01-17T13:15:07.293Z,4.60
2023-01-17T13:20:17.547Z,4.07
2023-01-17T13:25:45.173Z,7.93
2023-01-17T13:31:14.019Z,4.95
2023-01-17T13:36:39.128Z,15.85
2023-01-17T13:41:49.716Z,6.53
2023-01-17T13:47:04.301Z,5.95
2023-01-17T13:52:12.420Z,6.65
2023-01-17T13:57:40.109Z,6.43
2023-01-17T14:02:43.656Z,8.25
2023-01-17T14:08:02.863Z,6.65
2023-01-17T14:13:04.881Z,8.85
2023-01-17T14:18:34.051Z,13.20
2023-01-17T14:23:58.185Z,9.07
2023-01-17T14:29:00.385Z,6.47
2023-01-17T14:34:15.367Z,8.85
2023-01-17T14:39:24.011Z,10.20
2023-01-17T14:44:24.760Z,11.38
2023-01-17T14:49:27.168Z,7.43
2023-01-17T14:54:29.110Z,10.68
2023-01-17T14:59:28.005Z,11.63
2023-01-17T15:04:29.106Z,12.27
2023-01-17T15:09:34.212Z,10.23
2023-01-17T15:14:43.405Z,10.35
2023-01-17T15:19:47.295Z,12.23
2023-01-17T15:24:49.073Z,11.02
2023-01-17T15:29:49.000Z,8.73
2023-01-17T15:34:50.490Z,8.90
2023-01-17T15:39:53.606Z,8.40
2023-01-17T15:44:56.523Z,11.85
2023-01-17T15:49:55.485Z,10.05
2023-01-17T15:55:01.664Z,9.80
2023-01-17T16:00:05.896Z,9.88
2023-01-17T16:05:21.267Z,13.43
2023-01-17T16:10:24.080Z,10.00
2023-01-17T16:15:23.908Z,9.25
2023-01-17T16:20:26.201Z,5.90
2023-01-17T16:25:32.433Z,7.00
2023-01-17T16:30:34.325Z,7.90
2023-01-17T16:35:35.499Z,27.55
2023-01-17T16:40:41.594Z,11.57
2023-01-17T16:45:42.564Z,8.55
2023-01-17T16:50:46.080Z,7.38
2023-01-17T16:55:46.538Z,10.05
2023-01-17T17:00:45.314Z,7.78
2023-01-17T17:05:45.257Z,9.85
2023-01-17T17:10:45.580Z,12.15
2023-01-17T17:15:53.398Z,12.38
2023-01-17T17:20:53.334Z,9.18
2023-01-17T17:26:06.997Z,9.05
2023-01-17T17:31:10.452Z,7.57
2023-01-17T17:36:11.291Z,20.10
2023-01-17T17:41:11.489Z,9.88
2023-01-17T17:46:10.416Z,13.40
2023-01-17T17:51:09.293Z,6.47
2023-01-17T17:56:08.514Z,9.70
2023-01-17T18:01:09.090Z,9.77
2023-01-17T18:06:09.821Z,6.88
2023-01-17T18:11:16.499Z,6.72
2023-01-17T18:16:19.256Z,10.93
2023-01-17T18:21:23.606Z,8.55
2023-01-17T18:26:24.471Z,7.53
2023-01-17T18:31:27.475Z,7.60
2023-01-17T18:36:29.614Z,11.27
2023-01-17T18:41:31.151Z,17.80
2023-01-17T18:46:32.947Z,5.72
2023-01-17T18:51:34.547Z,5.40
2023-01-17T18:56:42.734Z,7.85
2023-01-17T19:01:43.918Z,6.30
2023-01-17T19:06:44.912Z,7.82
2023-01-17T19:11:45.188Z,25.25
2023-01-17T19:16:48.322Z,6.95
2023-01-17T19:21:47.555Z,7.30
2023-01-17T19:26:48.033Z,9.95
2023-01-17T19:31:54.415Z,5.28
2023-01-17T19:36:58.615Z,6.68
2023-01-17T19:41:57.716Z,6.78
2023-01-17T19:46:58.096Z,4.35
2023-01-17T19:51:57.044Z,4.10
2023-01-17T19:56:56.102Z,5.03
2023-01-17T20:01:55.244Z,5.60
2023-01-17T20:06:55.760Z,5.38
2023-01-17T20:11:56.627Z,9.45
2023-01-17T20:16:55.595Z,8.88
2023-01-17T20:22:12.300Z,8.43
2023-01-17T20:27:21.996Z,4.55
2023-01-17T20:32:24.005Z,6.38
2023-01-17T20:37:34.447Z,7.40
2023-01-17T20:42:38.911Z,6.53
2023-01-17T20:47:38.943Z,6.22
2023-01-17T20:52:49.016Z,12.52
2023-01-17T20:57:50.799Z,4.35
2023-01-17T21:02:50.475Z,5.32
2023-01-17T21:07:50.750Z,19.70
2023-01-17T21:12:49.595Z,15.07
2023-01-17T21:17:49.409Z,17.48
2023-01-17T21:22:50.030Z,8.70
2023-01-17T21:27:50.808Z,9.05
2023-01-17T21:32:57.022Z,7.40
2023-01-17T21:37:58.511Z,8.02
2023-01-17T21:43:05.199Z,4.60
2023-01-17T21:48:06.801Z,7.78
2023-01-17T21:53:06.424Z,7.60
2023-01-17T21:58:36.590Z,6.30
2023-01-17T22:03:35.754Z,6.70
2023-01-17T22:08:35.230Z,6.57
2023-01-17T22:13:45.364Z,7.82
2023-01-17T22:18:47.646Z,7.32
2023-01-17T22:23:48.535Z,10.10
2023-01-17T22:28:48.924Z,4.97
2023-01-17T22:33:49.183Z,5.85
2023-01-17T22:38:48.348Z,5.97
2023-01-17T22:43:52.954Z,15.20
2023-01-17T22:48:52.343Z,9.68
2023-01-17T22:53:52.771Z,4.90
2023-01-17T22:58:53.464Z,11.90
2023-01-17T23:03:54.728Z,5.03
2023-01-17T23:08:56.599Z,4.75
2023-01-17T23:13:58.489Z,8.43
2023-01-17T23:19:14.860Z,5.05
2023-01-17T23:24:13.701Z,4.95
2023-01-17T23:29:15.663Z,3.63
2023-01-17T23:34:15.504Z,4.40
2023-01-17T23:39:16.874Z,6.20
2023-01-17T23:44:18.405Z,4.70
2023-01-17T23:49:24.897Z,4.22
2023-01-17T23:54:40.883Z,6.38
2023-01-17T23:59:41.165Z,5.00
